< < Back
Terminal Aerodrome Forecast


Current Version              Previous Versions:   1  2  3  4  5  6  7  8  9  

Terminal Aerodrome Forecast

738
FTUS42 KFFC 291121
TAFMCN
TAF
KMCN 291121Z 2912/3012 05007KT P6SM FEW060
     FM291400 07009KT P6SM SCT030
     FM291800 08010G18KT P6SM VCSH SCT050
      TEMPO 2919/2922 6SM -TSRA BKN040CB
     FM292300 06006KT P6SM SCT070 BKN150
     FM300600 07004KT P6SM SCT050=

Latest METAR

985
SAUS80 KWBC 291800 RRA
MTRMCN
METAR KMCN 291753Z 03010G17KT 10SM FEW045 SCT060 34/20 A3007 RMK AO2
SLP175 T03390200 10344 20233 58012


USA.gov is the U.S. government's official web portal to all federal, state and local government web resources and services.